Rolla, ND

9:55 PM CST on December 04, 2016 (GMT -0600)
Rolla

Weather History for K06D - February, 2014

Change the Weather History Date:

Sunday, February 2, 2014

  Actual Average (KRUG) Record (KRUG)
Temperature  
Mean Temperature 2 °F -  
Max Temperature 14 °F 15 °F 43 °F (1991)
Min Temperature -11 °F -4 °F -34 °F (1989)
Degree Days  
Heating Degree Days 64    
Moisture  
Dew Point -1 °F    
Average Humidity 79    
Maximum Humidity 92    
Minimum Humidity 67    
Precipitation  
Precipitation 0.01 in - - ()
Sea Level Pressure  
Sea Level Pressure 29.95 in    
Wind  
Wind Speed 10 mph (WSW)    
Max Wind Speed 17 mph    
Max Gust Speed -    
Visibility 10 miles    
Events Rain , Snow    
Averages and records for this station are not official NWS values.
T = Trace of Precipitation, MM = Missing Value Source: NWS Daily Summary

Daily Weather History Graph

Daily Weather History Graph

Search for Another Location

Airport or City:

Trip Planner

Search our weather history database for the weather conditions in past years. The results will help you decide how hot, cold, wet, or windy it might be!

Date:

Astronomy

Feb. 02, 2014 Rise Set
Actual Time 8:07 AM CST 5:37 PM CST
Civil Twilight 7:33 AM CST 6:11 PM CST
Nautical Twilight 6:55 AM CST 6:49 PM CST
Astronomical Twilight 6:18 AM CST 7:26 PM CST
Moon 9:14 AM CST (2/2) 9:47 PM CST (2/2)
Length of Visible Light 10h 38m
Length of Day
9h 30m
Waxing Crescent, 11% of the Moon is Illuminated
Feb 2
Waxing Crescent
Feb 6
First Quarter
Feb 14
Full
Feb 22
Last Quarter
Mar 1
New

Hourly Weather History & Observations

Time (CST) Temp. Windchill Dew Point Humidity Pressure Visibility Wind Dir Wind Speed Gust Speed Precip Events Conditions
12:15 AM -9.4 °F -27.9 °F -14.8 °F 77% 30.02 in 10.0 mi WSW 10.4 mph - N/A   Mostly Cloudy
12:35 AM -7.6 °F -25.7 °F -11.2 °F 84% 30.02 in 10.0 mi WSW 10.4 mph - N/A   Mostly Cloudy
12:55 AM -7.6 °F -24.6 °F -13.0 °F 77% 30.01 in 10.0 mi WSW 9.2 mph - N/A   Mostly Cloudy
1:15 AM -7.6 °F -24.6 °F -13.0 °F 77% 30.01 in 10.0 mi WSW 9.2 mph - N/A   Clear
1:35 AM -11.2 °F -29.0 °F -16.6 °F 77% 30.01 in 10.0 mi WSW 9.2 mph - N/A   Scattered Clouds
1:55 AM -11.2 °F -29.0 °F -14.8 °F 84% 30.00 in 10.0 mi SSW 9.2 mph - N/A   Scattered Clouds
2:15 AM -9.4 °F -27.9 °F -14.8 °F 77% 30.00 in 10.0 mi SW 10.4 mph - N/A   Scattered Clouds
2:35 AM -9.4 °F -27.9 °F -13.0 °F 84% 30.00 in 10.0 mi SSW 10.4 mph - N/A   Mostly Cloudy
2:55 AM -7.6 °F -25.7 °F -11.2 °F 84% 29.99 in 10.0 mi SW 10.4 mph - N/A   Overcast
3:15 AM -4.0 °F -20.2 °F -9.4 °F 78% 29.99 in 10.0 mi SW 9.2 mph - N/A   Overcast
3:35 AM -4.0 °F -20.2 °F -9.4 °F 78% 29.99 in 10.0 mi SW 9.2 mph - N/A   Overcast
3:55 AM -4.0 °F -20.2 °F -7.6 °F 85% 29.98 in 10.0 mi SW 9.2 mph - N/A   Overcast
4:15 AM -2.2 °F -16.8 °F -7.6 °F 78% 29.98 in 10.0 mi SW 8.1 mph - N/A   Overcast
4:35 AM -0.4 °F -15.7 °F -4.0 °F 85% 29.97 in 10.0 mi SW 9.2 mph - N/A   Overcast
4:55 AM -0.4 °F -14.7 °F -4.0 °F 85% 29.97 in 10.0 mi WSW 8.1 mph - N/A   Overcast
5:15 AM -0.4 °F -13.4 °F -2.2 °F 92% 29.96 in 10.0 mi WSW 6.9 mph - N/A   Overcast
5:35 AM 1.4 °F -13.5 °F -2.2 °F 85% 29.96 in 10.0 mi WSW 9.2 mph - N/A   Overcast
5:55 AM 1.4 °F -9.9 °F -2.2 °F 85% 29.95 in 10.0 mi WSW 5.8 mph - N/A   Overcast
6:15 AM 1.4 °F -12.5 °F -0.4 °F 92% 29.95 in 10.0 mi SW 8.1 mph - N/A   Overcast
6:35 AM 1.4 °F -12.5 °F -0.4 °F 92% 29.94 in 10.0 mi SW 8.1 mph - N/A   Overcast
6:55 AM 1.4 °F -13.5 °F -0.4 °F 92% 29.94 in 10.0 mi SW 9.2 mph - N/A   Overcast
7:15 AM 1.4 °F -13.5 °F -0.4 °F 92% 29.94 in 10.0 mi SW 9.2 mph - N/A   Overcast
7:35 AM 1.4 °F -13.5 °F -2.2 °F 85% 29.93 in 10.0 mi SW 9.2 mph - N/A   Mostly Cloudy
7:55 AM -0.4 °F -14.7 °F -2.2 °F 92% 29.93 in 10.0 mi SW 8.1 mph - N/A   Clear
8:15 AM -0.4 °F -13.4 °F -2.2 °F 92% 29.93 in 10.0 mi SW 6.9 mph - N/A   Clear
8:35 AM -0.4 °F -13.4 °F -4.0 °F 85% 29.93 in 10.0 mi South 6.9 mph - N/A   Clear
8:55 AM -0.4 °F -13.4 °F -4.0 °F 85% 29.93 in 10.0 mi South 6.9 mph - N/A   Clear
9:15 AM -0.4 °F -15.7 °F -2.2 °F 92% 29.93 in 10.0 mi SSW 9.2 mph - N/A   Partly Cloudy
9:35 AM 1.4 °F -14.5 °F -0.4 °F 92% 29.93 in 10.0 mi SW 10.4 mph - N/A   Mostly Cloudy
9:55 AM 3.2 °F -12.2 °F -0.4 °F 85% 29.92 in 10.0 mi SW 10.4 mph - N/A   Scattered Clouds
10:15 AM 5.0 °F -10.8 °F -0.4 °F 78% 29.92 in 10.0 mi SW 11.5 mph - N/A   Clear
10:35 AM 5.0 °F -12.3 °F -0.4 °F 78% 29.92 in 10.0 mi WSW 13.8 mph - N/A   Clear
10:55 AM 5.0 °F -11.6 °F 1.4 °F 85% 29.92 in 10.0 mi WSW 12.7 mph - N/A   Clear
11:15 AM 6.8 °F -8.6 °F 1.4 °F 79% 29.92 in 10.0 mi SW 11.5 mph - N/A   Clear
11:35 AM 6.8 °F -5.9 °F 1.4 °F 79% 29.92 in 10.0 mi SW 8.1 mph - N/A   Clear
11:55 AM 8.6 °F -5.5 °F 1.4 °F 73% 29.91 in 10.0 mi SW 10.4 mph - N/A   Clear
12:15 PM 8.6 °F -6.3 °F 1.4 °F 73% 29.90 in 10.0 mi SW 11.5 mph - N/A   Clear
12:35 PM 8.6 °F -7.0 °F 1.4 °F 73% 29.89 in 10.0 mi SW 12.7 mph - N/A   Clear
12:55 PM 8.6 °F -6.3 °F 1.4 °F 73% 29.89 in 10.0 mi SW 11.5 mph - N/A   Clear
1:15 PM 8.6 °F -5.5 °F 1.4 °F 73% 29.89 in 10.0 mi SW 10.4 mph - N/A   Clear
1:35 PM 12.2 °F -2.5 °F 3.2 °F 67% 29.88 in 10.0 mi WSW 12.7 mph - N/A   Clear
1:55 PM 14.0 °F -2.0 °F 5.0 °F 67% 29.88 in 10.0 mi West 16.1 mph - N/A   Clear
2:15 PM 14.0 °F -0.2 °F 5.0 °F 67% 29.88 in 10.0 mi SW 12.7 mph - N/A   Clear
2:35 PM 12.2 °F -1.8 °F 5.0 °F 73% 29.88 in 10.0 mi SW 11.5 mph - N/A   Clear
2:55 PM 12.2 °F -2.5 °F 5.0 °F 73% 29.88 in 10.0 mi SW 12.7 mph - N/A   Clear
3:15 PM 12.2 °F -3.1 °F 5.0 °F 73% 29.89 in 10.0 mi SW 13.8 mph - N/A   Clear
3:35 PM 10.4 °F -4.1 °F 3.2 °F 73% 29.90 in 10.0 mi WSW 11.5 mph - N/A   Partly Cloudy
3:55 PM 12.2 °F -1.8 °F 5.0 °F 73% 29.91 in 10.0 mi WSW 11.5 mph - N/A   Mostly Cloudy
4:15 PM 12.2 °F -1.0 °F 5.0 °F 73% 29.91 in 10.0 mi SW 10.4 mph - N/A   Overcast
4:35 PM 14.0 °F -1.4 °F 5.0 °F 67% 29.92 in 10.0 mi West 15.0 mph - N/A   Overcast
4:55 PM 14.0 °F -0.2 °F 5.0 °F 67% 29.92 in 10.0 mi West 12.7 mph - N/A   Overcast
5:15 PM 14.0 °F -2.5 °F 5.0 °F 67% 29.93 in 10.0 mi WNW 17.3 mph - N/A   Overcast
5:35 PM 12.2 °F -3.1 °F 5.0 °F 73% 29.94 in 10.0 mi WNW 13.8 mph - N/A Snow Light Snow
5:55 PM 12.2 °F -2.5 °F 5.0 °F 73% 29.95 in 10.0 mi WNW 12.7 mph - N/A   Overcast
6:15 PM 10.4 °F -6.0 °F 5.0 °F 79% 29.95 in 10.0 mi NW 15.0 mph - N/A   Overcast
6:35 PM 8.6 °F -7.7 °F 1.4 °F 73% 29.96 in 10.0 mi WNW 13.8 mph - N/A   Overcast
6:55 PM 8.6 °F -6.3 °F 1.4 °F 73% 29.97 in 10.0 mi WNW 11.5 mph - N/A   Overcast
7:15 PM 8.6 °F -6.3 °F 3.2 °F 79% 29.97 in 10.0 mi WNW 11.5 mph - N/A   Overcast
7:35 PM 8.6 °F -4.7 °F 3.2 °F 79% 29.98 in 10.0 mi West 9.2 mph - N/A   Overcast
7:55 PM 8.6 °F -4.7 °F 3.2 °F 79% 29.99 in 10.0 mi West 9.2 mph - N/A   Overcast
8:15 PM 8.6 °F -4.7 °F 3.2 °F 79% 29.99 in 10.0 mi WSW 9.2 mph - N/A   Overcast
8:35 PM 8.6 °F -4.7 °F 3.2 °F 79% 29.99 in 10.0 mi West 9.2 mph - N/A Snow Light Snow
8:55 PM 8.6 °F -5.5 °F 3.2 °F 79% 30.00 in 10.0 mi WNW 10.4 mph - N/A   Overcast
9:15 PM 8.6 °F -8.3 °F 1.4 °F 73% 30.00 in 10.0 mi NW 15.0 mph - N/A Snow Light Snow
9:35 PM 6.8 °F -11.8 °F 3.2 °F 85% 30.01 in 2.5 mi NNW 17.3 mph - 0.01 in Snow Light Snow
9:55 PM 6.8 °F -11.8 °F 1.4 °F 79% 30.01 in 8.0 mi NNW 17.3 mph - 0.01 in Rain Light Freezing Rain
10:15 PM 6.8 °F -10.0 °F -0.4 °F 72% 30.01 in 10.0 mi NNW 13.8 mph - N/A Snow Light Snow
10:35 PM 5.0 °F -6.9 °F -0.4 °F 78% 30.01 in 10.0 mi WNW 6.9 mph - N/A   Overcast
10:55 PM 5.0 °F -8.1 °F -0.4 °F 78% 30.01 in 10.0 mi WNW 8.1 mph - N/A   Overcast
11:15 PM 5.0 °F -9.1 °F -0.4 °F 78% 30.01 in 10.0 mi WNW 9.2 mph - N/A   Overcast
11:35 PM 5.0 °F -10.0 °F -0.4 °F 78% 30.01 in 10.0 mi WNW 10.4 mph - N/A   Overcast
11:55 PM 5.0 °F -11.6 °F -2.2 °F 72% 30.00 in 10.0 mi NW 12.7 mph - N/A   Overcast